sensor_id;sensor_type;location;lat;lon;timestamp;temperature;humidity
13458;DHT22;6801;53.018;11.560;2024-01-11T00:00:59;-3275.00;76.40
13458;DHT22;6801;53.018;11.560;2024-01-11T00:03:27;-3275.00;76.40
13458;DHT22;6801;53.018;11.560;2024-01-11T00:05:54;-3275.00;76.40
13458;DHT22;6801;53.018;11.560;2024-01-11T00:08:21;-3275.00;76.40
13458;DHT22;6801;53.018;11.560;2024-01-11T00:10:48;-3275.00;76.50
13458;DHT22;6801;53.018;11.560;2024-01-11T00:13:15;-3275.00;76.50
13458;DHT22;6801;53.018;11.560;2024-01-11T00:15:42;-3275.00;76.60
13458;DHT22;6801;53.018;11.560;2024-01-11T00:18:09;-3275.00;76.60
13458;DHT22;6801;53.018;11.560;2024-01-11T00:20:37;-3275.00;76.70
13458;DHT22;6801;53.018;11.560;2024-01-11T00:23:04;-3275.00;76.80
13458;DHT22;6801;53.018;11.560;2024-01-11T00:25:31;-3275.00;76.70
13458;DHT22;6801;53.018;11.560;2024-01-11T00:27:58;-3275.10;76.80
13458;DHT22;6801;53.018;11.560;2024-01-11T00:30:25;-3275.10;76.80
13458;DHT22;6801;53.018;11.560;2024-01-11T00:32:52;-3275.10;76.90
13458;DHT22;6801;53.018;11.560;2024-01-11T00:35:20;-3275.10;76.90
13458;DHT22;6801;53.018;11.560;2024-01-11T00:37:48;-3275.10;76.90
13458;DHT22;6801;53.018;11.560;2024-01-11T00:40:16;-3275.10;76.90
13458;DHT22;6801;53.018;11.560;2024-01-11T00:42:43;-3275.20;77.00
13458;DHT22;6801;53.018;11.560;2024-01-11T00:45:10;-3275.20;77.00
13458;DHT22;6801;53.018;11.560;2024-01-11T00:47:37;-3275.20;77.00
13458;DHT22;6801;53.018;11.560;2024-01-11T00:50:05;-3275.20;77.00
13458;DHT22;6801;53.018;11.560;2024-01-11T00:52:32;-3275.20;77.00
13458;DHT22;6801;53.018;11.560;2024-01-11T00:55:01;-3275.20;77.00
13458;DHT22;6801;53.018;11.560;2024-01-11T00:57:27;-3275.20;77.10
13458;DHT22;6801;53.018;11.560;2024-01-11T00:59:54;-3275.20;77.30
13458;DHT22;6801;53.018;11.560;2024-01-11T01:02:21;-3275.20;77.40
13458;DHT22;6801;53.018;11.560;2024-01-11T01:04:48;-3275.20;77.50
13458;DHT22;6801;53.018;11.560;2024-01-11T01:07:15;-3275.20;77.60
13458;DHT22;6801;53.018;11.560;2024-01-11T01:09:42;-3275.30;77.60
13458;DHT22;6801;53.018;11.560;2024-01-11T01:12:10;-3275.30;77.70
13458;DHT22;6801;53.018;11.560;2024-01-11T01:14:37;-3275.20;77.70
13458;DHT22;6801;53.018;11.560;2024-01-11T01:17:04;-3275.20;77.70
13458;DHT22;6801;53.018;11.560;2024-01-11T01:19:32;-3275.20;77.80
13458;DHT22;6801;53.018;11.560;2024-01-11T01:21:58;-3275.30;77.80
13458;DHT22;6801;53.018;11.560;2024-01-11T01:24:26;-3275.20;77.90
13458;DHT22;6801;53.018;11.560;2024-01-11T01:26:52;-3275.30;78.00
13458;DHT22;6801;53.018;11.560;2024-01-11T01:29:21;-3275.30;78.00
13458;DHT22;6801;53.018;11.560;2024-01-11T01:31:48;-3275.30;78.20
13458;DHT22;6801;53.018;11.560;2024-01-11T01:34:14;-3275.30;78.20
13458;DHT22;6801;53.018;11.560;2024-01-11T01:36:41;-3275.30;78.40
13458;DHT22;6801;53.018;11.560;2024-01-11T01:39:08;-3275.30;78.40
13458;DHT22;6801;53.018;11.560;2024-01-11T01:41:35;-3275.30;78.40
13458;DHT22;6801;53.018;11.560;2024-01-11T01:44:02;-3275.30;78.50
13458;DHT22;6801;53.018;11.560;2024-01-11T01:46:31;-3275.30;78.60
13458;DHT22;6801;53.018;11.560;2024-01-11T01:48:59;-3275.40;78.70
13458;DHT22;6801;53.018;11.560;2024-01-11T01:51:29;-3275.30;78.60
13458;DHT22;6801;53.018;11.560;2024-01-11T01:53:56;-3275.40;78.60
13458;DHT22;6801;53.018;11.560;2024-01-11T01:56:24;-3275.40;78.50
13458;DHT22;6801;53.018;11.560;2024-01-11T01:58:52;-3275.40;78.50
13458;DHT22;6801;53.018;11.560;2024-01-11T02:01:20;-3275.40;78.40
13458;DHT22;6801;53.018;11.560;2024-01-11T02:03:50;-3275.40;78.40
13458;DHT22;6801;53.018;11.560;2024-01-11T02:06:22;-3275.40;78.30
13458;DHT22;6801;53.018;11.560;2024-01-11T02:08:52;-3275.40;78.40
13458;DHT22;6801;53.018;11.560;2024-01-11T02:11:20;-3275.40;78.30
13458;DHT22;6801;53.018;11.560;2024-01-11T02:13:47;-3275.40;78.30
13458;DHT22;6801;53.018;11.560;2024-01-11T02:16:14;-3275.40;78.20
13458;DHT22;6801;53.018;11.560;2024-01-11T02:18:41;-3275.50;78.10
13458;DHT22;6801;53.018;11.560;2024-01-11T02:21:11;-3275.40;78.10
13458;DHT22;6801;53.018;11.560;2024-01-11T02:23:42;-3275.50;78.00
13458;DHT22;6801;53.018;11.560;2024-01-11T02:26:12;-3275.50;77.90
13458;DHT22;6801;53.018;11.560;2024-01-11T02:28:43;-3275.50;77.90
13458;DHT22;6801;53.018;11.560;2024-01-11T02:31:11;-3275.50;77.90
13458;DHT22;6801;53.018;11.560;2024-01-11T02:33:38;-3275.50;77.80
13458;DHT22;6801;53.018;11.560;2024-01-11T02:36:06;-3275.50;77.80
13458;DHT22;6801;53.018;11.560;2024-01-11T02:38:33;-3275.50;77.70
13458;DHT22;6801;53.018;11.560;2024-01-11T02:41:01;-3275.50;77.80
13458;DHT22;6801;53.018;11.560;2024-01-11T02:43:29;-3275.60;77.80
13458;DHT22;6801;53.018;11.560;2024-01-11T02:45:56;-3275.60;77.70
13458;DHT22;6801;53.018;11.560;2024-01-11T02:48:27;-3275.60;77.80
13458;DHT22;6801;53.018;11.560;2024-01-11T02:50:55;-3275.50;78.00
13458;DHT22;6801;53.018;11.560;2024-01-11T02:53:22;-3275.60;78.00
13458;DHT22;6801;53.018;11.560;2024-01-11T02:55:49;-3275.60;78.00
13458;DHT22;6801;53.018;11.560;2024-01-11T02:58:16;-3275.60;77.90
13458;DHT22;6801;53.018;11.560;2024-01-11T03:00:44;-3275.60;77.90
13458;DHT22;6801;53.018;11.560;2024-01-11T03:03:11;-3275.60;77.90
13458;DHT22;6801;53.018;11.560;2024-01-11T03:05:38;-3275.60;77.90
13458;DHT22;6801;53.018;11.560;2024-01-11T03:08:05;-3275.60;77.90
13458;DHT22;6801;53.018;11.560;2024-01-11T03:10:32;-3275.60;77.80
13458;DHT22;6801;53.018;11.560;2024-01-11T03:12:59;-3275.60;77.90
13458;DHT22;6801;53.018;11.560;2024-01-11T03:15:26;-3275.60;77.90
13458;DHT22;6801;53.018;11.560;2024-01-11T03:17:55;-3275.60;77.90
13458;DHT22;6801;53.018;11.560;2024-01-11T03:20:21;-3275.70;78.00
13458;DHT22;6801;53.018;11.560;2024-01-11T03:22:50;-3275.70;78.00
13458;DHT22;6801;53.018;11.560;2024-01-11T03:25:18;-3275.60;78.00
13458;DHT22;6801;53.018;11.560;2024-01-11T03:27:45;-3275.60;78.10
13458;DHT22;6801;53.018;11.560;2024-01-11T03:30:13;-3275.60;78.10
13458;DHT22;6801;53.018;11.560;2024-01-11T03:32:42;-3275.60;78.10
13458;DHT22;6801;53.018;11.560;2024-01-11T03:35:10;-3275.60;78.20
13458;DHT22;6801;53.018;11.560;2024-01-11T03:37:37;-3275.60;78.20
13458;DHT22;6801;53.018;11.560;2024-01-11T03:40:05;-3275.70;78.30
13458;DHT22;6801;53.018;11.560;2024-01-11T03:42:32;-3275.70;78.30
13458;DHT22;6801;53.018;11.560;2024-01-11T03:44:59;-3275.70;78.30
13458;DHT22;6801;53.018;11.560;2024-01-11T03:47:26;-3275.70;78.40
13458;DHT22;6801;53.018;11.560;2024-01-11T03:49:53;-3275.70;78.40
13458;DHT22;6801;53.018;11.560;2024-01-11T03:52:21;-3275.70;78.50
13458;DHT22;6801;53.018;11.560;2024-01-11T03:54:48;-3275.60;78.50
13458;DHT22;6801;53.018;11.560;2024-01-11T03:57:16;-3275.70;78.50
13458;DHT22;6801;53.018;11.560;2024-01-11T03:59:43;-3275.70;78.60
13458;DHT22;6801;53.018;11.560;2024-01-11T04:02:10;-3275.70;78.60
13458;DHT22;6801;53.018;11.560;2024-01-11T04:04:37;-3275.70;78.60
13458;DHT22;6801;53.018;11.560;2024-01-11T04:07:04;-3275.60;78.60
13458;DHT22;6801;53.018;11.560;2024-01-11T04:09:32;-3275.70;78.60
13458;DHT22;6801;53.018;11.560;2024-01-11T04:11:59;-3275.70;78.70
13458;DHT22;6801;53.018;11.560;2024-01-11T04:14:26;-3275.70;78.70
13458;DHT22;6801;53.018;11.560;2024-01-11T04:16:53;-3275.70;78.60
13458;DHT22;6801;53.018;11.560;2024-01-11T04:19:20;-3275.70;78.60
13458;DHT22;6801;53.018;11.560;2024-01-11T04:21:47;-3275.70;78.60
13458;DHT22;6801;53.018;11.560;2024-01-11T04:24:14;-3275.70;78.60
13458;DHT22;6801;53.018;11.560;2024-01-11T04:26:42;-3275.70;78.70
13458;DHT22;6801;53.018;11.560;2024-01-11T04:29:10;-3275.80;78.80
13458;DHT22;6801;53.018;11.560;2024-01-11T04:31:36;-3275.70;78.80
13458;DHT22;6801;53.018;11.560;2024-01-11T04:34:04;-3275.80;78.80
13458;DHT22;6801;53.018;11.560;2024-01-11T04:36:31;-3275.70;78.90
13458;DHT22;6801;53.018;11.560;2024-01-11T04:38:58;-3275.70;79.00
13458;DHT22;6801;53.018;11.560;2024-01-11T04:41:25;-3275.80;79.10
13458;DHT22;6801;53.018;11.560;2024-01-11T04:43:53;-3275.80;79.10
13458;DHT22;6801;53.018;11.560;2024-01-11T04:46:21;-3275.80;79.00
13458;DHT22;6801;53.018;11.560;2024-01-11T04:48:50;-3275.80;79.00
13458;DHT22;6801;53.018;11.560;2024-01-11T04:51:18;-3275.80;79.00
13458;DHT22;6801;53.018;11.560;2024-01-11T04:53:46;-3275.80;79.20
13458;DHT22;6801;53.018;11.560;2024-01-11T04:56:15;-3275.80;79.10
13458;DHT22;6801;53.018;11.560;2024-01-11T04:58:43;-3275.80;79.10
13458;DHT22;6801;53.018;11.560;2024-01-11T05:01:13;-3275.80;79.10
13458;DHT22;6801;53.018;11.560;2024-01-11T05:03:40;-3275.80;79.00
13458;DHT22;6801;53.018;11.560;2024-01-11T05:06:07;-3275.80;79.10
13458;DHT22;6801;53.018;11.560;2024-01-11T05:08:34;-3275.80;79.10
13458;DHT22;6801;53.018;11.560;2024-01-11T05:11:01;-3275.80;79.10
13458;DHT22;6801;53.018;11.560;2024-01-11T05:13:28;-3275.80;79.20
13458;DHT22;6801;53.018;11.560;2024-01-11T05:15:55;-3275.90;79.20
13458;DHT22;6801;53.018;11.560;2024-01-11T05:18:23;-3275.90;79.20
13458;DHT22;6801;53.018;11.560;2024-01-11T05:20:50;-3275.80;79.20
13458;DHT22;6801;53.018;11.560;2024-01-11T05:23:17;-3275.80;79.30
13458;DHT22;6801;53.018;11.560;2024-01-11T05:25:44;-3275.80;79.30
13458;DHT22;6801;53.018;11.560;2024-01-11T05:28:11;-3275.80;79.30
13458;DHT22;6801;53.018;11.560;2024-01-11T05:30:39;-3275.80;79.40
13458;DHT22;6801;53.018;11.560;2024-01-11T05:33:06;-3275.80;79.40
13458;DHT22;6801;53.018;11.560;2024-01-11T05:35:34;-3275.80;79.40
13458;DHT22;6801;53.018;11.560;2024-01-11T05:38:01;-3275.80;79.50
13458;DHT22;6801;53.018;11.560;2024-01-11T05:40:28;-3275.90;79.50
13458;DHT22;6801;53.018;11.560;2024-01-11T05:42:54;-3275.80;79.50
13458;DHT22;6801;53.018;11.560;2024-01-11T05:45:21;-3275.80;79.60
13458;DHT22;6801;53.018;11.560;2024-01-11T05:47:49;-3275.80;79.60
13458;DHT22;6801;53.018;11.560;2024-01-11T05:50:16;-3275.80;79.60
13458;DHT22;6801;53.018;11.560;2024-01-11T05:52:44;-3275.90;79.60
13458;DHT22;6801;53.018;11.560;2024-01-11T05:55:11;-3275.90;79.50
13458;DHT22;6801;53.018;11.560;2024-01-11T05:57:38;-3275.90;79.50
13458;DHT22;6801;53.018;11.560;2024-01-11T06:00:05;-3275.90;79.40
13458;DHT22;6801;53.018;11.560;2024-01-11T06:02:33;-3275.90;79.40
13458;DHT22;6801;53.018;11.560;2024-01-11T06:04:59;-3275.90;79.40
13458;DHT22;6801;53.018;11.560;2024-01-11T06:07:26;-3275.90;79.30
13458;DHT22;6801;53.018;11.560;2024-01-11T06:09:55;-3276.00;79.20
13458;DHT22;6801;53.018;11.560;2024-01-11T06:12:22;-3276.00;79.10
13458;DHT22;6801;53.018;11.560;2024-01-11T06:14:49;-3276.00;79.20
13458;DHT22;6801;53.018;11.560;2024-01-11T06:17:15;-3276.00;79.20
13458;DHT22;6801;53.018;11.560;2024-01-11T06:19:42;-3276.00;79.30
13458;DHT22;6801;53.018;11.560;2024-01-11T06:22:09;-3276.00;79.20
13458;DHT22;6801;53.018;11.560;2024-01-11T06:24:36;-3276.00;79.30
13458;DHT22;6801;53.018;11.560;2024-01-11T06:27:05;-3276.00;79.30
13458;DHT22;6801;53.018;11.560;2024-01-11T06:29:32;-3276.00;79.30
13458;DHT22;6801;53.018;11.560;2024-01-11T06:31:59;-3276.00;79.40
13458;DHT22;6801;53.018;11.560;2024-01-11T06:34:26;-3276.00;79.40
13458;DHT22;6801;53.018;11.560;2024-01-11T06:36:53;-3276.00;79.40
13458;DHT22;6801;53.018;11.560;2024-01-11T06:39:20;-3276.00;79.40
13458;DHT22;6801;53.018;11.560;2024-01-11T06:41:47;-3276.00;79.40
13458;DHT22;6801;53.018;11.560;2024-01-11T06:44:16;-3276.00;79.40
13458;DHT22;6801;53.018;11.560;2024-01-11T06:46:43;-3276.00;79.50
13458;DHT22;6801;53.018;11.560;2024-01-11T06:49:11;-3276.00;79.50
13458;DHT22;6801;53.018;11.560;2024-01-11T06:51:38;-3276.00;79.50
13458;DHT22;6801;53.018;11.560;2024-01-11T06:54:06;-3276.00;79.60
13458;DHT22;6801;53.018;11.560;2024-01-11T06:56:33;-3276.00;79.50
13458;DHT22;6801;53.018;11.560;2024-01-11T06:59:01;-3276.00;79.60
13458;DHT22;6801;53.018;11.560;2024-01-11T07:01:29;-3276.00;79.60
13458;DHT22;6801;53.018;11.560;2024-01-11T07:03:56;-3276.00;79.60
13458;DHT22;6801;53.018;11.560;2024-01-11T07:06:23;-3276.00;79.60
13458;DHT22;6801;53.018;11.560;2024-01-11T07:08:51;-3276.00;79.60
13458;DHT22;6801;53.018;11.560;2024-01-11T07:11:18;-3276.00;79.60
13458;DHT22;6801;53.018;11.560;2024-01-11T07:13:45;-3276.00;79.50
13458;DHT22;6801;53.018;11.560;2024-01-11T07:16:12;-3276.10;79.60
13458;DHT22;6801;53.018;11.560;2024-01-11T07:18:41;-3276.10;79.60
13458;DHT22;6801;53.018;11.560;2024-01-11T07:21:09;-3276.10;79.50
13458;DHT22;6801;53.018;11.560;2024-01-11T07:23:37;-3276.10;79.50
13458;DHT22;6801;53.018;11.560;2024-01-11T07:26:04;-3276.10;79.70
13458;DHT22;6801;53.018;11.560;2024-01-11T07:28:31;-3276.10;79.80
13458;DHT22;6801;53.018;11.560;2024-01-11T07:30:58;-3276.10;79.70
13458;DHT22;6801;53.018;11.560;2024-01-11T07:33:26;-3276.10;79.80
13458;DHT22;6801;53.018;11.560;2024-01-11T07:35:54;-3276.10;79.80
13458;DHT22;6801;53.018;11.560;2024-01-11T07:38:21;-3276.10;79.90
13458;DHT22;6801;53.018;11.560;2024-01-11T07:40:48;-3276.10;79.90
13458;DHT22;6801;53.018;11.560;2024-01-11T07:43:16;-3276.10;79.80
13458;DHT22;6801;53.018;11.560;2024-01-11T07:45:43;-3276.10;79.80
13458;DHT22;6801;53.018;11.560;2024-01-11T07:48:10;-3276.10;79.70
13458;DHT22;6801;53.018;11.560;2024-01-11T07:50:37;-3276.10;79.70
13458;DHT22;6801;53.018;11.560;2024-01-11T07:53:06;-3276.10;79.70
13458;DHT22;6801;53.018;11.560;2024-01-11T07:55:33;-3276.20;79.70
13458;DHT22;6801;53.018;11.560;2024-01-11T07:58:01;-3276.20;79.60
13458;DHT22;6801;53.018;11.560;2024-01-11T08:00:28;-3276.20;79.70
13458;DHT22;6801;53.018;11.560;2024-01-11T08:02:55;-3276.20;79.60
13458;DHT22;6801;53.018;11.560;2024-01-11T08:05:23;-3276.20;79.60
13458;DHT22;6801;53.018;11.560;2024-01-11T08:07:50;-3276.20;79.50
13458;DHT22;6801;53.018;11.560;2024-01-11T08:10:19;-3276.30;79.40
13458;DHT22;6801;53.018;11.560;2024-01-11T08:12:46;-3276.30;79.10
13458;DHT22;6801;53.018;11.560;2024-01-11T08:15:13;-3276.20;79.20
13458;DHT22;6801;53.018;11.560;2024-01-11T08:17:44;-3276.20;79.20
13458;DHT22;6801;53.018;11.560;2024-01-11T08:20:11;-3276.30;79.20
13458;DHT22;6801;53.018;11.560;2024-01-11T08:22:39;-3276.40;79.00
13458;DHT22;6801;53.018;11.560;2024-01-11T08:25:07;-3276.30;79.10
13458;DHT22;6801;53.018;11.560;2024-01-11T08:27:35;-3276.40;79.10
13458;DHT22;6801;53.018;11.560;2024-01-11T08:30:03;-3276.40;79.30
13458;DHT22;6801;53.018;11.560;2024-01-11T08:32:31;-3276.40;79.20
13458;DHT22;6801;53.018;11.560;2024-01-11T08:35:05;-3276.40;79.20
13458;DHT22;6801;53.018;11.560;2024-01-11T08:37:32;-3276.40;79.10
13458;DHT22;6801;53.018;11.560;2024-01-11T08:39:59;-3276.40;79.20
13458;DHT22;6801;53.018;11.560;2024-01-11T08:42:26;-3276.40;79.20
13458;DHT22;6801;53.018;11.560;2024-01-11T08:44:54;-3276.40;79.20
13458;DHT22;6801;53.018;11.560;2024-01-11T08:47:21;-3276.50;79.20
13458;DHT22;6801;53.018;11.560;2024-01-11T08:49:48;-3276.50;79.30
13458;DHT22;6801;53.018;11.560;2024-01-11T08:52:15;-3276.50;79.30
13458;DHT22;6801;53.018;11.560;2024-01-11T08:54:42;-3276.50;79.30
13458;DHT22;6801;53.018;11.560;2024-01-11T08:57:09;-3276.50;79.40
13458;DHT22;6801;53.018;11.560;2024-01-11T08:59:36;-3276.50;79.50
13458;DHT22;6801;53.018;11.560;2024-01-11T09:02:04;-3276.50;79.50
13458;DHT22;6801;53.018;11.560;2024-01-11T09:04:31;-3276.50;79.50
13458;DHT22;6801;53.018;11.560;2024-01-11T09:06:59;-3276.50;79.50
13458;DHT22;6801;53.018;11.560;2024-01-11T09:09:26;-3276.50;79.50
13458;DHT22;6801;53.018;11.560;2024-01-11T09:11:53;-3276.50;79.70
13458;DHT22;6801;53.018;11.560;2024-01-11T09:14:20;-3276.50;79.70
13458;DHT22;6801;53.018;11.560;2024-01-11T09:16:48;-3276.50;79.80
13458;DHT22;6801;53.018;11.560;2024-01-11T09:19:17;-3276.50;79.80
13458;DHT22;6801;53.018;11.560;2024-01-11T09:21:43;-3276.60;79.80
13458;DHT22;6801;53.018;11.560;2024-01-11T09:24:10;-3276.60;79.90
13458;DHT22;6801;53.018;11.560;2024-01-11T09:26:37;-3276.60;79.80
13458;DHT22;6801;53.018;11.560;2024-01-11T09:29:04;-3276.60;79.70
13458;DHT22;6801;53.018;11.560;2024-01-11T09:31:31;-3276.70;79.60
13458;DHT22;6801;53.018;11.560;2024-01-11T09:33:58;-3276.60;79.90
13458;DHT22;6801;53.018;11.560;2024-01-11T09:36:26;-3276.70;79.80
13458;DHT22;6801;53.018;11.560;2024-01-11T09:38:53;-3276.60;79.90
13458;DHT22;6801;53.018;11.560;2024-01-11T09:41:21;-3276.60;79.90
13458;DHT22;6801;53.018;11.560;2024-01-11T09:43:50;-3276.70;80.10
13458;DHT22;6801;53.018;11.560;2024-01-11T09:46:20;-3276.60;80.10
13458;DHT22;6801;53.018;11.560;2024-01-11T09:48:49;-3276.70;80.10
13458;DHT22;6801;53.018;11.560;2024-01-11T09:51:17;-3276.70;79.70
13458;DHT22;6801;53.018;11.560;2024-01-11T09:53:46;-3276.70;79.80
13458;DHT22;6801;53.018;11.560;2024-01-11T09:56:14;-3276.70;79.80
13458;DHT22;6801;53.018;11.560;2024-01-11T10:02:23;-3276.70;79.90
13458;DHT22;6801;53.018;11.560;2024-01-11T10:04:52;-3276.70;80.10
13458;DHT22;6801;53.018;11.560;2024-01-11T10:07:21;0.00;79.90
13458;DHT22;6801;53.018;11.560;2024-01-11T10:09:50;0.00;79.90
13458;DHT22;6801;53.018;11.560;2024-01-11T10:12:19;0.00;80.00
13458;DHT22;6801;53.018;11.560;2024-01-11T10:14:50;-3276.70;80.10
13458;DHT22;6801;53.018;11.560;2024-01-11T10:17:17;-3276.70;80.10
13458;DHT22;6801;53.018;11.560;2024-01-11T10:19:44;-3276.70;80.20
13458;DHT22;6801;53.018;11.560;2024-01-11T10:22:11;-3276.70;80.20
13458;DHT22;6801;53.018;11.560;2024-01-11T10:24:42;-3276.70;80.20
13458;DHT22;6801;53.018;11.560;2024-01-11T10:27:13;-3276.70;80.30
13458;DHT22;6801;53.018;11.560;2024-01-11T10:29:40;0.00;80.20
13458;DHT22;6801;53.018;11.560;2024-01-11T10:32:07;0.00;80.30
13458;DHT22;6801;53.018;11.560;2024-01-11T10:34:35;0.00;80.30
13458;DHT22;6801;53.018;11.560;2024-01-11T10:37:05;0.00;80.30
13458;DHT22;6801;53.018;11.560;2024-01-11T10:39:34;0.00;80.30
13458;DHT22;6801;53.018;11.560;2024-01-11T10:42:05;0.00;80.30
13458;DHT22;6801;53.018;11.560;2024-01-11T10:44:35;0.00;80.20
13458;DHT22;6801;53.018;11.560;2024-01-11T10:47:02;0.00;80.30
13458;DHT22;6801;53.018;11.560;2024-01-11T10:49:30;0.00;80.30
13458;DHT22;6801;53.018;11.560;2024-01-11T10:52:00;0.10;80.30
13458;DHT22;6801;53.018;11.560;2024-01-11T10:54:28;0.10;80.10
13458;DHT22;6801;53.018;11.560;2024-01-11T10:56:58;0.10;80.10
13458;DHT22;6801;53.018;11.560;2024-01-11T10:59:26;0.10;80.10
13458;DHT22;6801;53.018;11.560;2024-01-11T11:01:57;0.10;80.00
13458;DHT22;6801;53.018;11.560;2024-01-11T11:04:25;0.10;80.00
13458;DHT22;6801;53.018;11.560;2024-01-11T11:10:08;0.20;79.80
13458;DHT22;6801;53.018;11.560;2024-01-11T11:12:36;0.20;79.80
13458;DHT22;6801;53.018;11.560;2024-01-11T11:15:06;0.20;79.90
13458;DHT22;6801;53.018;11.560;2024-01-11T11:17:35;0.20;80.00
13458;DHT22;6801;53.018;11.560;2024-01-11T11:20:02;0.20;80.00
13458;DHT22;6801;53.018;11.560;2024-01-11T11:22:33;0.20;80.00
13458;DHT22;6801;53.018;11.560;2024-01-11T11:25:04;0.20;80.30
13458;DHT22;6801;53.018;11.560;2024-01-11T11:27:32;0.20;80.30
13458;DHT22;6801;53.018;11.560;2024-01-11T11:29:59;0.30;80.30
13458;DHT22;6801;53.018;11.560;2024-01-11T11:32:36;0.30;80.20
13458;DHT22;6801;53.018;11.560;2024-01-11T11:35:05;0.30;80.40
13458;DHT22;6801;53.018;11.560;2024-01-11T11:37:36;0.30;80.40
13458;DHT22;6801;53.018;11.560;2024-01-11T11:40:04;0.30;80.40
13458;DHT22;6801;53.018;11.560;2024-01-11T11:42:32;0.40;80.40
13458;DHT22;6801;53.018;11.560;2024-01-11T11:45:00;0.40;80.50
13458;DHT22;6801;53.018;11.560;2024-01-11T11:47:34;0.40;80.50
13458;DHT22;6801;53.018;11.560;2024-01-11T11:50:07;0.40;80.40
13458;DHT22;6801;53.018;11.560;2024-01-11T11:52:37;0.50;80.40
13458;DHT22;6801;53.018;11.560;2024-01-11T11:55:07;0.50;80.40
13458;DHT22;6801;53.018;11.560;2024-01-11T11:57:35;0.50;80.30
13458;DHT22;6801;53.018;11.560;2024-01-11T12:00:03;0.50;80.40
13458;DHT22;6801;53.018;11.560;2024-01-11T12:02:37;0.60;80.40
13458;DHT22;6801;53.018;11.560;2024-01-11T12:05:06;0.60;80.40
13458;DHT22;6801;53.018;11.560;2024-01-11T12:07:33;0.60;80.30
13458;DHT22;6801;53.018;11.560;2024-01-11T12:10:01;0.60;80.30
13458;DHT22;6801;53.018;11.560;2024-01-11T12:12:28;0.60;80.20
13458;DHT22;6801;53.018;11.560;2024-01-11T12:14:55;0.60;80.40
13458;DHT22;6801;53.018;11.560;2024-01-11T12:17:22;0.60;80.40
13458;DHT22;6801;53.018;11.560;2024-01-11T12:19:51;0.60;80.40
13458;DHT22;6801;53.018;11.560;2024-01-11T12:22:19;0.60;80.40
13458;DHT22;6801;53.018;11.560;2024-01-11T12:24:46;0.70;80.30
13458;DHT22;6801;53.018;11.560;2024-01-11T12:27:13;0.70;80.30
13458;DHT22;6801;53.018;11.560;2024-01-11T12:29:40;0.70;80.40
13458;DHT22;6801;53.018;11.560;2024-01-11T12:32:09;0.70;80.40
13458;DHT22;6801;53.018;11.560;2024-01-11T12:34:37;0.80;80.40
13458;DHT22;6801;53.018;11.560;2024-01-11T12:37:05;0.80;80.40
13458;DHT22;6801;53.018;11.560;2024-01-11T12:39:33;0.80;80.30
13458;DHT22;6801;53.018;11.560;2024-01-11T12:42:04;0.80;79.90
13458;DHT22;6801;53.018;11.560;2024-01-11T12:44:31;0.80;79.90
13458;DHT22;6801;53.018;11.560;2024-01-11T12:46:58;0.90;79.90
13458;DHT22;6801;53.018;11.560;2024-01-11T12:49:25;0.90;79.90
13458;DHT22;6801;53.018;11.560;2024-01-11T12:51:53;0.90;80.20
13458;DHT22;6801;53.018;11.560;2024-01-11T12:54:21;0.90;80.20
13458;DHT22;6801;53.018;11.560;2024-01-11T12:56:50;0.90;80.30
13458;DHT22;6801;53.018;11.560;2024-01-11T12:59:17;0.90;80.40
13458;DHT22;6801;53.018;11.560;2024-01-11T13:01:46;0.90;80.30
13458;DHT22;6801;53.018;11.560;2024-01-11T13:04:13;1.00;80.40
13458;DHT22;6801;53.018;11.560;2024-01-11T13:06:40;0.90;80.40
13458;DHT22;6801;53.018;11.560;2024-01-11T13:09:07;1.00;80.40
13458;DHT22;6801;53.018;11.560;2024-01-11T13:11:35;1.00;80.60
13458;DHT22;6801;53.018;11.560;2024-01-11T13:14:05;1.00;80.50
13458;DHT22;6801;53.018;11.560;2024-01-11T13:16:37;1.00;80.30
13458;DHT22;6801;53.018;11.560;2024-01-11T13:19:04;1.00;80.40
13458;DHT22;6801;53.018;11.560;2024-01-11T13:21:31;1.00;80.40
13458;DHT22;6801;53.018;11.560;2024-01-11T13:23:58;1.10;80.50
13458;DHT22;6801;53.018;11.560;2024-01-11T13:26:25;1.10;80.90
13458;DHT22;6801;53.018;11.560;2024-01-11T13:28:52;1.10;80.60
13458;DHT22;6801;53.018;11.560;2024-01-11T13:31:20;1.10;80.50
13458;DHT22;6801;53.018;11.560;2024-01-11T13:33:48;1.10;81.10
13458;DHT22;6801;53.018;11.560;2024-01-11T13:36:15;1.10;81.10
13458;DHT22;6801;53.018;11.560;2024-01-11T13:38:42;1.10;81.00
13458;DHT22;6801;53.018;11.560;2024-01-11T13:41:09;1.10;80.90
13458;DHT22;6801;53.018;11.560;2024-01-11T13:43:36;1.10;80.70
13458;DHT22;6801;53.018;11.560;2024-01-11T13:46:03;1.20;81.20
13458;DHT22;6801;53.018;11.560;2024-01-11T13:48:32;1.10;80.80
13458;DHT22;6801;53.018;11.560;2024-01-11T13:50:59;1.20;80.60
13458;DHT22;6801;53.018;11.560;2024-01-11T13:53:28;1.20;80.70
13458;DHT22;6801;53.018;11.560;2024-01-11T13:55:56;1.20;80.80
13458;DHT22;6801;53.018;11.560;2024-01-11T13:58:23;1.20;80.80
13458;DHT22;6801;53.018;11.560;2024-01-11T14:00:51;1.20;80.90
13458;DHT22;6801;53.018;11.560;2024-01-11T14:03:18;1.20;81.00
13458;DHT22;6801;53.018;11.560;2024-01-11T14:05:46;1.20;81.20
13458;DHT22;6801;53.018;11.560;2024-01-11T14:08:13;1.30;80.90
13458;DHT22;6801;53.018;11.560;2024-01-11T14:10:40;1.30;80.90
13458;DHT22;6801;53.018;11.560;2024-01-11T14:13:08;1.30;81.00
13458;DHT22;6801;53.018;11.560;2024-01-11T14:15:35;1.30;80.90
13458;DHT22;6801;53.018;11.560;2024-01-11T14:18:02;1.30;81.10
13458;DHT22;6801;53.018;11.560;2024-01-11T14:20:30;1.30;81.50
13458;DHT22;6801;53.018;11.560;2024-01-11T14:23:00;1.30;81.20
13458;DHT22;6801;53.018;11.560;2024-01-11T14:25:27;1.30;81.00
13458;DHT22;6801;53.018;11.560;2024-01-11T14:27:56;1.30;80.80
13458;DHT22;6801;53.018;11.560;2024-01-11T14:30:23;1.30;81.40
13458;DHT22;6801;53.018;11.560;2024-01-11T14:32:50;1.30;81.70
13458;DHT22;6801;53.018;11.560;2024-01-11T14:35:18;1.30;81.30
13458;DHT22;6801;53.018;11.560;2024-01-11T14:37:45;1.30;81.40
13458;DHT22;6801;53.018;11.560;2024-01-11T14:40:13;1.30;81.30
13458;DHT22;6801;53.018;11.560;2024-01-11T14:42:40;1.40;81.30
13458;DHT22;6801;53.018;11.560;2024-01-11T14:45:08;1.40;82.00
13458;DHT22;6801;53.018;11.560;2024-01-11T14:47:35;1.30;81.50
13458;DHT22;6801;53.018;11.560;2024-01-11T14:50:03;1.40;81.40
13458;DHT22;6801;53.018;11.560;2024-01-11T14:52:34;1.40;81.60
13458;DHT22;6801;53.018;11.560;2024-01-11T14:55:01;1.40;81.50
13458;DHT22;6801;53.018;11.560;2024-01-11T14:57:30;1.40;81.90
13458;DHT22;6801;53.018;11.560;2024-01-11T14:59:57;1.40;81.70
13458;DHT22;6801;53.018;11.560;2024-01-11T15:02:24;1.40;81.60
13458;DHT22;6801;53.018;11.560;2024-01-11T15:04:51;1.40;81.50
13458;DHT22;6801;53.018;11.560;2024-01-11T15:07:18;1.40;81.40
13458;DHT22;6801;53.018;11.560;2024-01-11T15:09:45;1.50;81.50
13458;DHT22;6801;53.018;11.560;2024-01-11T15:12:14;1.50;81.50
13458;DHT22;6801;53.018;11.560;2024-01-11T15:14:43;1.50;81.40